Airfield :
LOGIN :

Register | Disclaimer

   EN    FR    IT 

 










Legend :    VFR   Marginal VFR   IFR   Intensive IFR   Very Intensive IFR
Visi :
Ceiling :
>= 8 km
>= 3000ft
5 to 8 km
1000 to 3000 ft
1500m to 5 km
500 to 1000 ft
800 to 1500m
200 to 500 ft
< 800m
< 200 ft
Symbols :   Thunderstorms  Fog  Heavy snow  Heavy precipitations  Wind > 20 kt
SIGMETs :     Misc.  Thunderstorms  Icing  Turbulence  Mountain Waves  Volcanic Ashes







- Airport Elevation : 135 ft
- IATA code : EDI
- Download approach charts


EGPH - Edinburgh

CURRENT METAR :
  • 241150Z 06017KT 7000 BKN006 12/09 Q0995

EXPIRED METARs :
  • 241120Z 05015KT 7000 BKN007 BKN014 12/09 Q0995
  • 241050Z 05018KT 6000 SCT007 BKN014 12/09 Q0995
  • 241020Z 06016KT 7000 BKN007 BKN014 12/09 Q0996
  • 240950Z 06014KT 6000 OVC007 11/09 Q0996
  • 240920Z 06014KT 6000 OVC007 10/09 Q0996

TAF TAF EGPH
Valid from the 24 at 12:00 until the 25 at 12:00 UTC


241057Z 2412/2512 06014KT 7000 BKN007
TEMPO 2412/2415 SCT007
BECMG 2415/2418 3000 BR BKN003
PROB40
TEMPO 2419/2423 0400 FG VV///
BECMG 2500/2503 15005KT 9999 NSW SCT012
PROB30
TEMPO 2503/2506 BKN012
ATIS : +44 131 339 2823
No reported NOTAMs for that airfield.



MET'MAP, your aeronautical weather chart ! - Copyright ORBIFLY December 2007 - Disclaimer

ORBIFLY MET'MAP TEAM :

Programming & Development : Alexandra Zaïnal
Concept & Development : Baudouin d'Aumeries
Co-Development & Prog : Marc-Olivier Méhu
Technical & hardware support : Manuel Goepfert

Contact : metmap@orbifly.com




SOURCES & CREDITS :

   NOAA